Terminal Aerodrome Forecast
Issued by NWS

Home | Current Version | Previous Version | Text Only | Print | Product List | Glossary On
Versions: 1 2 3 4 5 6 7 8 9 10 11 12 13
000
FTUS43 KFGF 182046 AAA
TAFDVL
TAF AMD
KDVL 182046Z 1821/1918 02015G23KT 4SM BLSN BKN015
     FM182300 01014KT P6SM SCT015 BKN025
     FM190100 35010KT P6SM BKN030
     FM190800 01009KT P6SM BKN050=

USA.gov is the U.S. government's official web portal to all federal, state and local government web resources and services.